createdAt,value
2023-05-17T00:02:04.805Z,13.73
2023-05-17T00:04:33.298Z,12.35
2023-05-17T00:07:00.568Z,14.18
2023-05-17T00:09:27.879Z,14.45
2023-05-17T00:11:55.188Z,14.82
2023-05-17T00:14:22.321Z,13.63
2023-05-17T00:16:49.551Z,19.35
2023-05-17T00:19:16.813Z,12.90
2023-05-17T00:21:44.074Z,23.08
2023-05-17T00:24:11.387Z,16.73
2023-05-17T00:26:38.701Z,15.95
2023-05-17T00:29:06.045Z,18.48
2023-05-17T00:31:33.350Z,8.98
2023-05-17T00:34:00.635Z,14.48
2023-05-17T00:36:27.970Z,14.98
2023-05-17T00:38:55.313Z,17.85
2023-05-17T00:41:22.528Z,11.13
2023-05-17T00:43:49.792Z,10.70
2023-05-17T00:46:17.034Z,16.95
2023-05-17T00:48:44.577Z,12.90
2023-05-17T00:51:12.543Z,14.43
2023-05-17T00:53:40.288Z,12.73
2023-05-17T00:56:07.567Z,17.92
2023-05-17T00:58:34.855Z,16.17
2023-05-17T01:01:02.472Z,20.05
2023-05-17T01:03:29.928Z,12.80
2023-05-17T01:05:57.265Z,16.80
2023-05-17T01:08:24.462Z,18.70
2023-05-17T01:10:58.364Z,12.00
2023-05-17T01:13:33.353Z,18.02
2023-05-17T01:16:19.021Z,18.92
2023-05-17T01:21:26.870Z,14.00
2023-05-17T01:24:09.658Z,15.18
2023-05-17T01:26:39.344Z,12.88
2023-05-17T01:29:09.212Z,15.80
2023-05-17T01:31:37.156Z,13.90
2023-05-17T01:34:08.441Z,14.95
2023-05-17T01:36:36.226Z,14.27
2023-05-17T01:39:03.596Z,13.73
2023-05-17T01:41:34.335Z,15.30
2023-05-17T01:44:08.619Z,13.13
2023-05-17T01:46:43.512Z,13.05
2023-05-17T01:49:19.719Z,14.63
2023-05-17T01:51:49.674Z,15.40
2023-05-17T01:54:21.500Z,16.85
2023-05-17T01:56:52.449Z,14.45
2023-05-17T01:59:25.302Z,16.83
2023-05-17T02:01:54.760Z,15.90
2023-05-17T02:04:22.110Z,17.83
2023-05-17T02:06:49.388Z,12.52
2023-05-17T02:09:17.689Z,13.52
2023-05-17T02:11:44.858Z,13.15
2023-05-17T02:14:12.072Z,13.25
2023-05-17T02:16:39.475Z,15.15
2023-05-17T02:19:09.034Z,14.20
2023-05-17T02:21:36.385Z,18.95
2023-05-17T02:24:03.833Z,21.00
2023-05-17T02:26:31.888Z,19.27
2023-05-17T02:28:59.270Z,15.55
2023-05-17T02:31:29.793Z,12.35
2023-05-17T02:33:57.067Z,14.40
2023-05-17T02:36:24.303Z,13.25
2023-05-17T02:38:51.557Z,10.15
2023-05-17T02:41:18.706Z,17.67
2023-05-17T02:43:45.919Z,14.93
2023-05-17T02:46:13.232Z,15.32
2023-05-17T02:48:40.642Z,16.02
2023-05-17T02:51:07.934Z,16.00
2023-05-17T02:53:35.286Z,12.35
2023-05-17T02:56:02.486Z,14.68
2023-05-17T02:58:29.725Z,16.63
2023-05-17T03:00:56.874Z,11.98
2023-05-17T03:03:24.147Z,17.10
2023-05-17T03:05:51.488Z,18.27
2023-05-17T03:08:18.740Z,12.57
2023-05-17T03:10:47.219Z,15.70
2023-05-17T03:13:14.841Z,13.52
2023-05-17T03:15:42.188Z,13.63
2023-05-17T03:18:09.618Z,18.75
2023-05-17T03:20:38.648Z,15.57
2023-05-17T03:23:06.755Z,16.02
2023-05-17T03:25:38.966Z,17.10
2023-05-17T03:28:06.302Z,17.08
2023-05-17T03:30:33.630Z,21.40
2023-05-17T03:33:01.021Z,21.25
2023-05-17T03:35:28.835Z,20.45
2023-05-17T03:37:57.540Z,17.27
2023-05-17T03:40:26.103Z,15.70
2023-05-17T03:42:54.173Z,12.05
2023-05-17T03:45:21.418Z,14.05
2023-05-17T03:47:48.707Z,16.08
2023-05-17T03:50:16.178Z,11.10
2023-05-17T03:52:43.469Z,11.88
2023-05-17T03:55:10.778Z,10.73
2023-05-17T03:57:37.952Z,14.68
2023-05-17T04:00:09.252Z,15.18
2023-05-17T04:02:42.025Z,9.45
2023-05-17T04:05:10.863Z,11.50
2023-05-17T04:07:38.060Z,15.20
2023-05-17T04:10:06.085Z,13.20
2023-05-17T04:12:33.450Z,11.32
2023-05-17T04:15:01.103Z,10.38
2023-05-17T04:17:29.077Z,10.85
2023-05-17T04:19:56.431Z,9.70
2023-05-17T04:22:23.764Z,10.65
2023-05-17T04:24:51.289Z,6.80
2023-05-17T04:27:18.979Z,11.77
2023-05-17T04:29:46.563Z,7.47
2023-05-17T04:32:14.177Z,12.57
2023-05-17T04:34:43.189Z,12.55
2023-05-17T04:37:10.633Z,9.98
2023-05-17T04:39:38.548Z,10.07
2023-05-17T04:42:05.861Z,12.45
2023-05-17T04:44:37.527Z,12.70
2023-05-17T04:47:04.872Z,10.88
2023-05-17T04:49:32.042Z,12.60
2023-05-17T04:51:59.235Z,11.75
2023-05-17T04:54:26.698Z,9.88
2023-05-17T04:56:54.324Z,10.32
2023-05-17T04:59:41.492Z,12.32
2023-05-17T05:02:08.819Z,16.02
2023-05-17T05:04:35.989Z,13.13
2023-05-17T05:07:03.561Z,12.32
2023-05-17T05:09:30.820Z,15.02
2023-05-17T05:11:58.117Z,9.13
2023-05-17T05:14:25.411Z,11.73
2023-05-17T05:16:52.633Z,17.85
2023-05-17T05:19:20.004Z,12.65
2023-05-17T05:21:47.932Z,12.25
2023-05-17T05:24:15.497Z,12.05
2023-05-17T05:26:43.008Z,18.02
2023-05-17T05:29:10.624Z,10.90
2023-05-17T05:31:38.627Z,10.50
2023-05-17T05:34:07.555Z,10.98
2023-05-17T05:36:34.985Z,10.63
2023-05-17T05:39:02.489Z,13.77
2023-05-17T05:41:31.462Z,6.97
2023-05-17T05:43:59.149Z,9.95
2023-05-17T05:46:27.165Z,13.05
2023-05-17T05:48:54.869Z,12.07
2023-05-17T05:51:22.787Z,12.00
2023-05-17T05:53:51.511Z,11.32
2023-05-17T05:56:20.040Z,12.52
2023-05-17T05:58:47.341Z,13.20
2023-05-17T06:01:14.609Z,12.77
2023-05-17T06:03:41.776Z,9.07
2023-05-17T06:06:09.071Z,10.90
2023-05-17T06:08:36.412Z,14.43
2023-05-17T06:11:03.677Z,8.10
2023-05-17T06:13:30.883Z,14.68
2023-05-17T06:15:59.633Z,10.45
2023-05-17T06:18:26.948Z,10.00
2023-05-17T06:20:54.252Z,8.30
2023-05-17T06:23:21.484Z,12.52
2023-05-17T06:25:48.970Z,8.77
2023-05-17T06:28:16.329Z,8.20
2023-05-17T06:30:43.492Z,9.82
2023-05-17T06:33:10.659Z,7.78
2023-05-17T06:35:51.729Z,10.05
2023-05-17T06:38:23.406Z,10.00
2023-05-17T06:40:54.614Z,8.40
2023-05-17T06:43:22.275Z,9.15
2023-05-17T06:45:49.705Z,7.72
2023-05-17T06:48:17.180Z,11.68
2023-05-17T06:50:46.572Z,9.82
2023-05-17T06:53:13.947Z,10.80
2023-05-17T06:55:41.848Z,8.68
2023-05-17T06:58:09.007Z,6.88
2023-05-17T07:00:37.178Z,7.30
2023-05-17T07:03:05.046Z,8.90
2023-05-17T07:05:32.631Z,6.07
2023-05-17T07:08:00.245Z,11.13
2023-05-17T07:10:27.463Z,7.15
2023-05-17T07:12:54.690Z,6.50
2023-05-17T07:15:22.017Z,10.55
2023-05-17T07:17:49.370Z,7.85
2023-05-17T07:20:16.659Z,14.05
2023-05-17T07:22:44.160Z,10.48
2023-05-17T07:25:11.404Z,8.98
2023-05-17T07:27:38.575Z,9.88
2023-05-17T07:30:07.240Z,8.05
2023-05-17T07:32:34.495Z,3.47
2023-05-17T07:35:06.073Z,8.10
2023-05-17T07:37:33.283Z,10.10
2023-05-17T07:40:00.562Z,5.47
2023-05-17T07:42:27.813Z,7.57
2023-05-17T07:44:55.192Z,7.82
2023-05-17T07:47:22.320Z,10.80
2023-05-17T07:49:49.542Z,9.02
2023-05-17T07:52:17.118Z,8.77
2023-05-17T07:54:44.281Z,8.07
2023-05-17T07:57:11.589Z,10.63
2023-05-17T07:59:38.830Z,8.30
2023-05-17T08:02:06.107Z,7.45
2023-05-17T08:04:33.319Z,11.27
2023-05-17T08:07:01.018Z,8.85
2023-05-17T08:09:28.273Z,9.90
2023-05-17T08:11:55.644Z,8.00
2023-05-17T08:14:24.730Z,6.15
2023-05-17T08:16:51.964Z,6.13
2023-05-17T08:19:19.633Z,6.25
2023-05-17T08:21:47.317Z,10.25
2023-05-17T08:24:14.525Z,10.45
2023-05-17T08:26:41.869Z,9.00
2023-05-17T08:29:09.020Z,6.70
2023-05-17T08:31:36.155Z,10.05
2023-05-17T08:34:03.483Z,9.93
2023-05-17T08:36:30.777Z,8.40
2023-05-17T08:38:58.158Z,6.82
2023-05-17T08:41:25.446Z,5.50
2023-05-17T08:43:52.622Z,3.97
2023-05-17T08:46:23.702Z,4.47
2023-05-17T08:48:52.079Z,4.07
2023-05-17T08:51:22.548Z,5.47
2023-05-17T08:53:50.687Z,9.45
2023-05-17T08:56:19.552Z,11.50
2023-05-17T08:58:57.146Z,7.38
2023-05-17T09:01:26.732Z,4.40
2023-05-17T09:03:55.418Z,7.90
2023-05-17T09:06:23.246Z,11.48
2023-05-17T09:08:58.266Z,8.07
2023-05-17T09:11:29.631Z,7.18
2023-05-17T09:14:06.736Z,11.10
2023-05-17T09:16:38.183Z,4.38
2023-05-17T09:19:06.545Z,7.82
2023-05-17T09:21:34.388Z,6.45
2023-05-17T09:26:42.041Z,8.05
2023-05-17T09:29:10.485Z,6.95
2023-05-17T09:31:37.676Z,6.20
2023-05-17T09:34:07.269Z,7.45
2023-05-17T09:36:36.223Z,8.98
2023-05-17T09:39:10.551Z,7.22
2023-05-17T09:41:45.455Z,8.45
2023-05-17T09:44:13.484Z,6.38
2023-05-17T09:46:45.876Z,4.75
2023-05-17T09:49:13.462Z,4.78
2023-05-17T09:51:42.255Z,5.55
2023-05-17T09:54:13.447Z,3.92
2023-05-17T09:56:41.046Z,6.22
2023-05-17T09:59:15.579Z,6.25
2023-05-17T10:01:43.349Z,8.50
2023-05-17T10:04:11.281Z,6.22
2023-05-17T10:06:47.959Z,4.72
2023-05-17T10:09:18.886Z,7.00
2023-05-17T10:11:47.586Z,5.93
2023-05-17T10:14:33.777Z,4.75
2023-05-17T10:17:03.210Z,4.13
2023-05-17T10:19:31.609Z,6.47
2023-05-17T10:22:08.301Z,5.07
2023-05-17T10:24:46.595Z,9.90
2023-05-17T10:27:14.144Z,6.70
2023-05-17T10:29:42.157Z,2.65
2023-05-17T10:32:10.567Z,4.68
2023-05-17T10:34:39.292Z,9.25
2023-05-17T10:37:07.670Z,9.48
2023-05-17T10:39:38.355Z,6.47
2023-05-17T10:42:14.748Z,9.02
2023-05-17T10:44:42.690Z,8.13
2023-05-17T10:47:11.750Z,6.18
2023-05-17T10:49:47.566Z,7.25
2023-05-17T10:52:16.876Z,6.80
2023-05-17T10:54:45.220Z,4.03
2023-05-17T10:57:49.906Z,6.40
2023-05-17T11:00:22.303Z,6.53
2023-05-17T11:02:50.674Z,7.75
2023-05-17T11:05:24.684Z,5.88
2023-05-17T11:07:51.987Z,6.07
2023-05-17T11:10:19.161Z,7.18
2023-05-17T11:12:49.426Z,6.97
2023-05-17T11:15:17.203Z,10.50
2023-05-17T11:17:44.633Z,9.02
2023-05-17T11:20:27.611Z,4.75
2023-05-17T11:23:08.629Z,7.63
2023-05-17T11:25:36.973Z,8.13
2023-05-17T11:28:18.169Z,6.70
2023-05-17T11:30:51.344Z,9.32
2023-05-17T11:33:29.771Z,9.40
2023-05-17T11:36:06.745Z,5.22
2023-05-17T11:41:26.568Z,9.10
2023-05-17T11:43:55.402Z,8.45
2023-05-17T11:46:24.226Z,7.32
2023-05-17T11:48:54.870Z,9.30
2023-05-17T11:51:24.961Z,7.30
2023-05-17T11:53:55.606Z,8.85
2023-05-17T11:56:29.082Z,9.13
2023-05-17T11:59:04.138Z,6.25
2023-05-17T12:01:52.939Z,14.10
2023-05-17T12:04:26.806Z,8.98
2023-05-17T12:06:54.946Z,9.35
2023-05-17T12:09:23.339Z,8.57
2023-05-17T12:11:50.697Z,5.53
2023-05-17T12:14:18.471Z,8.10
2023-05-17T12:16:45.943Z,5.22
2023-05-17T12:19:23.460Z,7.20
2023-05-17T12:21:51.453Z,7.43
2023-05-17T12:24:18.783Z,7.88
2023-05-17T12:26:46.888Z,7.15
2023-05-17T12:29:14.982Z,10.80
2023-05-17T12:31:48.051Z,9.73
2023-05-17T12:34:17.050Z,8.40
2023-05-17T12:36:44.759Z,6.43
2023-05-17T12:39:12.502Z,7.45
2023-05-17T12:41:40.199Z,10.35
2023-05-17T12:44:15.485Z,13.48
2023-05-17T12:46:43.736Z,8.20
2023-05-17T12:49:14.548Z,8.43
2023-05-17T12:51:43.214Z,4.47
2023-05-17T12:54:10.762Z,7.50
2023-05-17T12:56:38.063Z,7.20
2023-05-17T12:59:06.281Z,10.07
2023-05-17T13:01:37.162Z,7.85
2023-05-17T13:04:04.989Z,9.50
2023-05-17T13:06:45.017Z,8.13
2023-05-17T13:09:12.426Z,7.00
2023-05-17T13:11:41.420Z,5.40
2023-05-17T13:14:09.523Z,9.00
2023-05-17T13:16:40.454Z,5.47
2023-05-17T13:19:14.212Z,9.90
2023-05-17T13:21:41.570Z,6.68
2023-05-17T13:24:10.721Z,5.80
2023-05-17T13:26:37.955Z,10.20
2023-05-17T13:29:05.209Z,6.93
2023-05-17T13:31:32.526Z,9.20
2023-05-17T13:33:59.839Z,7.88
2023-05-17T13:36:27.044Z,7.35
2023-05-17T13:38:54.314Z,8.43
2023-05-17T13:41:21.589Z,5.47
2023-05-17T13:43:48.859Z,5.10
2023-05-17T13:46:16.207Z,6.43
2023-05-17T13:48:44.009Z,5.57
2023-05-17T13:51:11.245Z,10.77
2023-05-17T13:53:38.776Z,4.30
2023-05-17T13:56:06.117Z,5.28
2023-05-17T13:58:33.322Z,9.13
2023-05-17T14:01:00.649Z,6.50
2023-05-17T14:03:28.002Z,8.38
2023-05-17T14:05:55.355Z,6.00
2023-05-17T14:08:22.620Z,7.35
2023-05-17T14:10:49.807Z,5.72
2023-05-17T14:13:17.189Z,9.63
2023-05-17T14:15:44.530Z,7.47
2023-05-17T14:18:11.823Z,7.93
2023-05-17T14:20:39.114Z,6.15
2023-05-17T14:23:06.385Z,8.10
2023-05-17T14:25:33.535Z,7.80
2023-05-17T14:28:00.844Z,6.40
2023-05-17T14:30:28.188Z,7.03
2023-05-17T14:32:55.529Z,9.55
2023-05-17T14:35:22.775Z,9.45
2023-05-17T14:37:50.003Z,10.45
2023-05-17T14:40:17.661Z,5.95
2023-05-17T14:42:45.040Z,8.93
2023-05-17T14:45:12.763Z,10.00
2023-05-17T14:47:40.061Z,7.93
2023-05-17T14:50:07.921Z,7.93
2023-05-17T14:52:35.602Z,8.30
2023-05-17T14:55:02.840Z,6.57
2023-05-17T14:57:30.334Z,8.18
2023-05-17T14:59:57.797Z,9.40
2023-05-17T15:02:25.032Z,6.60
2023-05-17T15:04:52.397Z,9.95
2023-05-17T15:07:19.744Z,9.43
2023-05-17T15:09:46.965Z,5.82
2023-05-17T15:12:14.322Z,7.85
2023-05-17T15:14:41.512Z,7.13
2023-05-17T15:17:08.793Z,8.18
2023-05-17T15:19:36.447Z,5.70
2023-05-17T15:22:03.646Z,8.20
2023-05-17T15:24:30.801Z,6.85
2023-05-17T15:26:58.044Z,7.78
2023-05-17T15:29:25.170Z,8.60
2023-05-17T15:31:52.340Z,8.27
2023-05-17T15:34:19.650Z,8.45
2023-05-17T15:36:47.442Z,7.32
2023-05-17T15:39:15.102Z,9.75
2023-05-17T15:41:43.372Z,4.78
2023-05-17T15:44:10.618Z,9.35
2023-05-17T15:46:37.832Z,6.63
2023-05-17T15:49:05.098Z,7.90
2023-05-17T15:51:32.270Z,8.13
2023-05-17T15:53:59.550Z,10.55
2023-05-17T15:56:27.110Z,13.02
2023-05-17T15:58:54.339Z,8.50
2023-05-17T16:01:21.523Z,8.57
2023-05-17T16:03:48.819Z,6.53
2023-05-17T16:06:16.092Z,9.23
2023-05-17T16:08:43.360Z,13.07
2023-05-17T16:11:10.633Z,8.60
2023-05-17T16:13:37.876Z,10.45
2023-05-17T16:16:05.194Z,7.45
2023-05-17T16:18:32.986Z,8.93
2023-05-17T16:21:02.698Z,6.72
2023-05-17T16:23:29.955Z,5.90
2023-05-17T16:25:57.204Z,10.85
2023-05-17T16:28:24.412Z,11.48
2023-05-17T16:30:52.315Z,5.82
2023-05-17T16:33:20.566Z,9.98
2023-05-17T16:35:49.086Z,6.97
2023-05-17T16:38:16.624Z,6.50
2023-05-17T16:40:43.869Z,9.15
2023-05-17T16:43:15.818Z,14.13
2023-05-17T16:45:46.469Z,8.95
2023-05-17T16:48:14.385Z,5.68
2023-05-17T16:50:44.706Z,5.97
2023-05-17T16:53:12.661Z,14.70
2023-05-17T16:55:39.895Z,11.65
2023-05-17T16:58:07.360Z,7.88
2023-05-17T17:00:34.877Z,9.13
2023-05-17T17:03:02.325Z,8.10
2023-05-17T17:05:29.505Z,6.82
2023-05-17T17:07:58.460Z,10.05
2023-05-17T17:10:25.773Z,8.52
2023-05-17T17:12:53.017Z,6.90
2023-05-17T17:15:20.735Z,8.63
2023-05-17T17:17:48.136Z,13.68
2023-05-17T17:20:15.989Z,7.15
2023-05-17T17:22:43.177Z,7.25
2023-05-17T17:25:10.746Z,7.30
2023-05-17T17:27:38.021Z,8.27
2023-05-17T17:30:05.574Z,8.65
2023-05-17T17:32:33.121Z,8.38
2023-05-17T17:35:00.630Z,10.20
2023-05-17T17:37:27.898Z,10.05
2023-05-17T17:39:55.235Z,8.93
2023-05-17T17:42:22.490Z,12.73
2023-05-17T17:44:49.702Z,10.38
2023-05-17T17:47:17.087Z,7.18
2023-05-17T17:49:44.452Z,10.43
2023-05-17T17:52:11.653Z,11.15
2023-05-17T17:54:38.873Z,8.25
2023-05-17T17:57:06.480Z,8.63
2023-05-17T17:59:33.716Z,8.25
2023-05-17T18:02:00.930Z,6.13
2023-05-17T18:04:28.275Z,8.88
2023-05-17T18:06:55.633Z,7.38
2023-05-17T18:09:23.700Z,9.93
2023-05-17T18:11:50.915Z,11.05
2023-05-17T18:14:18.126Z,10.40
2023-05-17T18:16:45.441Z,6.28
2023-05-17T18:19:12.764Z,7.15
2023-05-17T18:21:41.554Z,10.50
2023-05-17T18:24:08.876Z,8.15
2023-05-17T18:26:36.316Z,11.55
2023-05-17T18:29:04.088Z,8.88
2023-05-17T18:31:31.622Z,8.32
2023-05-17T18:33:58.797Z,6.13
2023-05-17T18:36:26.215Z,11.88
2023-05-17T18:38:53.434Z,5.18
2023-05-17T18:41:20.955Z,12.15
2023-05-17T18:43:48.181Z,5.90
2023-05-17T18:46:15.422Z,6.30
2023-05-17T18:48:42.645Z,10.60
2023-05-17T18:51:09.859Z,5.95
2023-05-17T18:53:37.017Z,5.15
2023-05-17T18:56:04.278Z,8.57
2023-05-17T18:58:31.541Z,7.38
2023-05-17T19:01:00.150Z,9.20
2023-05-17T19:03:27.425Z,9.20
2023-05-17T19:05:54.655Z,7.88
2023-05-17T19:08:21.866Z,5.13
2023-05-17T19:10:49.006Z,8.40
2023-05-17T19:13:16.249Z,6.35
2023-05-17T19:15:43.384Z,6.28
2023-05-17T19:18:10.656Z,7.90
2023-05-17T19:20:37.950Z,8.38
2023-05-17T19:23:06.041Z,5.43
2023-05-17T19:25:33.170Z,10.35
2023-05-17T19:28:00.335Z,5.15
2023-05-17T19:30:30.349Z,7.75
2023-05-17T19:32:59.019Z,5.50
2023-05-17T19:35:26.217Z,6.45
2023-05-17T19:37:53.427Z,8.05
2023-05-17T19:40:22.204Z,6.75
2023-05-17T19:42:49.625Z,4.93
2023-05-17T19:45:17.184Z,6.90
2023-05-17T19:47:44.420Z,9.00
2023-05-17T19:50:11.848Z,4.80
2023-05-17T19:52:39.303Z,10.13
2023-05-17T19:55:06.911Z,8.10
2023-05-17T19:57:34.102Z,12.60
2023-05-17T20:00:01.262Z,6.10
2023-05-17T20:02:31.456Z,7.22
2023-05-17T20:05:02.118Z,6.88
2023-05-17T20:07:29.275Z,7.45
2023-05-17T20:09:56.625Z,8.52
2023-05-17T20:12:25.660Z,10.07
2023-05-17T20:14:53.573Z,6.43
2023-05-17T20:17:21.110Z,7.57
2023-05-17T20:19:48.274Z,7.90
2023-05-17T20:22:15.527Z,8.73
2023-05-17T20:24:44.092Z,8.57
2023-05-17T20:27:11.575Z,6.32
2023-05-17T20:29:38.768Z,9.68
2023-05-17T20:32:06.628Z,8.63
2023-05-17T20:34:34.041Z,8.90
2023-05-17T20:37:01.269Z,9.63
2023-05-17T20:39:29.498Z,6.90
2023-05-17T20:41:56.895Z,10.95
2023-05-17T20:44:24.280Z,12.05
2023-05-17T20:46:52.172Z,7.82
2023-05-17T20:49:19.434Z,7.50
2023-05-17T20:51:46.622Z,7.10
2023-05-17T20:54:13.870Z,7.00
2023-05-17T20:56:41.036Z,7.43
2023-05-17T20:59:08.174Z,9.85
2023-05-17T21:01:36.459Z,12.15
2023-05-17T21:04:03.801Z,8.65
2023-05-17T21:06:32.640Z,8.40
2023-05-17T21:09:02.448Z,6.32
2023-05-17T21:11:30.047Z,6.93
2023-05-17T21:14:00.238Z,13.73
2023-05-17T21:16:27.738Z,8.48
2023-05-17T21:18:55.262Z,9.70
2023-05-17T21:21:22.535Z,6.82
2023-05-17T21:23:49.766Z,6.55
2023-05-17T21:26:16.937Z,15.50
2023-05-17T21:28:44.167Z,9.52
2023-05-17T21:31:11.499Z,10.20
2023-05-17T21:33:38.745Z,10.90
2023-05-17T21:36:06.216Z,12.52
2023-05-17T21:38:33.430Z,11.02
2023-05-17T21:41:00.644Z,7.28
2023-05-17T21:43:27.921Z,11.60
2023-05-17T21:45:55.134Z,7.35
2023-05-17T21:48:22.413Z,9.57
2023-05-17T21:50:49.843Z,9.80
2023-05-17T21:53:17.025Z,10.52
2023-05-17T21:55:56.935Z,9.80
2023-05-17T21:58:29.633Z,7.38
2023-05-17T22:00:57.005Z,7.18
2023-05-17T22:03:24.371Z,7.15
2023-05-17T22:05:52.545Z,10.77
2023-05-17T22:08:19.734Z,10.88
2023-05-17T22:10:47.546Z,10.48
2023-05-17T22:13:18.082Z,9.20
2023-05-17T22:15:45.328Z,5.57
2023-05-17T22:18:13.917Z,7.53
2023-05-17T22:20:41.285Z,6.15
2023-05-17T22:23:08.651Z,5.82
2023-05-17T22:25:36.012Z,9.77
2023-05-17T22:28:03.292Z,10.45
2023-05-17T22:30:30.836Z,6.90
2023-05-17T22:32:58.336Z,11.43
2023-05-17T22:35:25.630Z,6.70
2023-05-17T22:37:53.444Z,9.98
2023-05-17T22:40:21.156Z,11.55
2023-05-17T22:42:48.496Z,8.48
2023-05-17T22:45:15.907Z,6.78
2023-05-17T22:47:43.151Z,8.07
2023-05-17T22:50:11.879Z,7.28
2023-05-17T22:52:41.180Z,5.00
2023-05-17T22:55:08.584Z,8.13
2023-05-17T22:57:35.700Z,7.22
2023-05-17T23:00:06.219Z,10.80
2023-05-17T23:02:33.344Z,7.35
2023-05-17T23:05:03.622Z,7.05
2023-05-17T23:07:37.170Z,7.90
2023-05-17T23:10:13.653Z,12.98
2023-05-17T23:12:40.775Z,5.90
2023-05-17T23:15:08.447Z,8.43
2023-05-17T23:17:36.471Z,8.50
2023-05-17T23:20:08.155Z,11.57
2023-05-17T23:22:35.470Z,7.38
2023-05-17T23:25:05.946Z,7.15
2023-05-17T23:27:33.431Z,7.30
2023-05-17T23:30:01.123Z,7.65
2023-05-17T23:32:28.829Z,10.50
2023-05-17T23:35:03.441Z,7.25
2023-05-17T23:37:34.434Z,12.50
2023-05-17T23:40:01.830Z,4.72
2023-05-17T23:42:32.248Z,7.00
2023-05-17T23:45:00.563Z,10.02
2023-05-17T23:47:28.178Z,6.03
2023-05-17T23:49:56.045Z,6.70
2023-05-17T23:52:23.757Z,9.75
2023-05-17T23:54:51.084Z,5.78
2023-05-17T23:57:18.220Z,7.40
2023-05-17T23:59:45.498Z,10.43
